sensor_id;sensor_type;location;lat;lon;timestamp;P1;durP1;ratioP1;P2;durP2;ratioP2
54795;SDS011;40693;43.884;20.340;2023-03-11T00:00:23;8.43;;;4.38;;
54795;SDS011;40693;43.884;20.340;2023-03-11T00:02:51;6.20;;;3.35;;
54795;SDS011;40693;43.884;20.340;2023-03-11T00:05:19;8.70;;;6.30;;
54795;SDS011;40693;43.884;20.340;2023-03-11T00:07:49;16.38;;;9.07;;
54795;SDS011;40693;43.884;20.340;2023-03-11T00:10:17;12.80;;;7.57;;
54795;SDS011;40693;43.884;20.340;2023-03-11T00:12:44;11.90;;;5.65;;
54795;SDS011;40693;43.884;20.340;2023-03-11T00:15:11;18.58;;;9.55;;
54795;SDS011;40693;43.884;20.340;2023-03-11T00:17:37;17.30;;;10.32;;
54795;SDS011;40693;43.884;20.340;2023-03-11T00:20:04;14.57;;;8.85;;
54795;SDS011;40693;43.884;20.340;2023-03-11T00:22:40;17.42;;;11.70;;
54795;SDS011;40693;43.884;20.340;2023-03-11T00:25:06;12.07;;;7.63;;
54795;SDS011;40693;43.884;20.340;2023-03-11T00:27:34;10.40;;;5.15;;
54795;SDS011;40693;43.884;20.340;2023-03-11T00:30:01;8.90;;;3.92;;
54795;SDS011;40693;43.884;20.340;2023-03-11T00:32:27;6.05;;;3.80;;
54795;SDS011;40693;43.884;20.340;2023-03-11T00:34:53;5.10;;;3.67;;
54795;SDS011;40693;43.884;20.340;2023-03-11T00:37:18;6.60;;;3.15;;
54795;SDS011;40693;43.884;20.340;2023-03-11T00:39:44;5.90;;;3.30;;
54795;SDS011;40693;43.884;20.340;2023-03-11T00:42:10;6.72;;;3.38;;
54795;SDS011;40693;43.884;20.340;2023-03-11T00:44:35;7.85;;;4.35;;
54795;SDS011;40693;43.884;20.340;2023-03-11T00:47:04;11.18;;;5.78;;
54795;SDS011;40693;43.884;20.340;2023-03-11T00:49:29;9.18;;;4.85;;
54795;SDS011;40693;43.884;20.340;2023-03-11T00:51:55;7.82;;;3.65;;
54795;SDS011;40693;43.884;20.340;2023-03-11T00:54:21;10.32;;;4.75;;
54795;SDS011;40693;43.884;20.340;2023-03-11T00:56:46;7.40;;;3.92;;
54795;SDS011;40693;43.884;20.340;2023-03-11T00:59:12;10.13;;;4.80;;
54795;SDS011;40693;43.884;20.340;2023-03-11T01:01:38;8.48;;;3.75;;
54795;SDS011;40693;43.884;20.340;2023-03-11T01:04:04;6.05;;;4.50;;
54795;SDS011;40693;43.884;20.340;2023-03-11T01:06:29;7.93;;;4.20;;
54795;SDS011;40693;43.884;20.340;2023-03-11T01:08:55;6.38;;;3.85;;
54795;SDS011;40693;43.884;20.340;2023-03-11T01:11:21;7.18;;;3.72;;
54795;SDS011;40693;43.884;20.340;2023-03-11T01:13:49;6.53;;;3.22;;
54795;SDS011;40693;43.884;20.340;2023-03-11T01:16:15;6.75;;;3.95;;
54795;SDS011;40693;43.884;20.340;2023-03-11T01:18:40;9.40;;;5.07;;
54795;SDS011;40693;43.884;20.340;2023-03-11T01:21:06;11.20;;;5.97;;
54795;SDS011;40693;43.884;20.340;2023-03-11T01:23:32;6.97;;;4.10;;
54795;SDS011;40693;43.884;20.340;2023-03-11T01:25:57;8.60;;;4.55;;
54795;SDS011;40693;43.884;20.340;2023-03-11T01:28:25;4.45;;;2.22;;
54795;SDS011;40693;43.884;20.340;2023-03-11T01:30:51;3.30;;;2.00;;
54795;SDS011;40693;43.884;20.340;2023-03-11T01:33:17;5.15;;;2.35;;
54795;SDS011;40693;43.884;20.340;2023-03-11T01:35:44;3.90;;;2.42;;
54795;SDS011;40693;43.884;20.340;2023-03-11T01:38:10;4.78;;;2.20;;
54795;SDS011;40693;43.884;20.340;2023-03-11T01:40:38;7.53;;;4.40;;
54795;SDS011;40693;43.884;20.340;2023-03-11T01:43:35;4.95;;;2.58;;
54795;SDS011;40693;43.884;20.340;2023-03-11T01:46:12;2.80;;;2.22;;
54795;SDS011;40693;43.884;20.340;2023-03-11T01:48:44;5.82;;;3.05;;
54795;SDS011;40693;43.884;20.340;2023-03-11T01:51:18;3.67;;;2.28;;
54795;SDS011;40693;43.884;20.340;2023-03-11T01:53:52;2.63;;;1.60;;
54795;SDS011;40693;43.884;20.340;2023-03-11T01:56:20;4.72;;;2.95;;
54795;SDS011;40693;43.884;20.340;2023-03-11T01:58:47;3.97;;;2.58;;
54795;SDS011;40693;43.884;20.340;2023-03-11T02:01:16;5.43;;;2.88;;
54795;SDS011;40693;43.884;20.340;2023-03-11T02:03:43;13.07;;;9.98;;
54795;SDS011;40693;43.884;20.340;2023-03-11T02:06:10;7.55;;;3.97;;
54795;SDS011;40693;43.884;20.340;2023-03-11T02:08:39;10.90;;;7.32;;
54795;SDS011;40693;43.884;20.340;2023-03-11T02:11:07;11.23;;;8.93;;
54795;SDS011;40693;43.884;20.340;2023-03-11T02:13:36;9.60;;;4.40;;
54795;SDS011;40693;43.884;20.340;2023-03-11T02:16:05;6.90;;;3.90;;
54795;SDS011;40693;43.884;20.340;2023-03-11T02:18:31;5.25;;;3.50;;
54795;SDS011;40693;43.884;20.340;2023-03-11T02:21:05;9.73;;;8.73;;
54795;SDS011;40693;43.884;20.340;2023-03-11T02:29:05;26.48;;;17.75;;
54795;SDS011;40693;43.884;20.340;2023-03-11T02:31:32;10.75;;;8.50;;
54795;SDS011;40693;43.884;20.340;2023-03-11T02:34:01;2.70;;;1.95;;
54795;SDS011;40693;43.884;20.340;2023-03-11T02:36:34;4.03;;;2.17;;
54795;SDS011;40693;43.884;20.340;2023-03-11T02:39:01;5.88;;;5.30;;
54795;SDS011;40693;43.884;20.340;2023-03-11T02:41:28;4.88;;;2.85;;
54795;SDS011;40693;43.884;20.340;2023-03-11T02:43:55;2.75;;;1.75;;
54795;SDS011;40693;43.884;20.340;2023-03-11T02:46:21;3.30;;;2.00;;
54795;SDS011;40693;43.884;20.340;2023-03-11T02:48:47;3.38;;;2.20;;
54795;SDS011;40693;43.884;20.340;2023-03-11T02:51:13;4.38;;;2.38;;
54795;SDS011;40693;43.884;20.340;2023-03-11T02:53:46;4.97;;;3.15;;
54795;SDS011;40693;43.884;20.340;2023-03-11T02:56:14;13.13;;;8.48;;
54795;SDS011;40693;43.884;20.340;2023-03-11T02:58:40;4.57;;;2.75;;
54795;SDS011;40693;43.884;20.340;2023-03-11T03:01:06;5.10;;;2.55;;
54795;SDS011;40693;43.884;20.340;2023-03-11T03:03:32;3.55;;;1.95;;
54795;SDS011;40693;43.884;20.340;2023-03-11T03:05:57;4.90;;;3.22;;
54795;SDS011;40693;43.884;20.340;2023-03-11T03:08:23;7.40;;;5.60;;
54795;SDS011;40693;43.884;20.340;2023-03-11T03:10:49;5.85;;;4.00;;
54795;SDS011;40693;43.884;20.340;2023-03-11T03:13:14;5.00;;;3.17;;
54795;SDS011;40693;43.884;20.340;2023-03-11T03:15:40;6.47;;;3.97;;
54795;SDS011;40693;43.884;20.340;2023-03-11T03:18:06;7.78;;;3.80;;
54795;SDS011;40693;43.884;20.340;2023-03-11T03:20:32;7.57;;;3.88;;
54795;SDS011;40693;43.884;20.340;2023-03-11T03:22:57;6.80;;;3.35;;
54795;SDS011;40693;43.884;20.340;2023-03-11T03:25:23;4.65;;;2.92;;
54795;SDS011;40693;43.884;20.340;2023-03-11T03:27:49;4.85;;;2.70;;
54795;SDS011;40693;43.884;20.340;2023-03-11T03:30:14;5.43;;;2.88;;
54795;SDS011;40693;43.884;20.340;2023-03-11T03:32:40;3.33;;;2.30;;
54795;SDS011;40693;43.884;20.340;2023-03-11T03:35:06;5.10;;;2.10;;
54795;SDS011;40693;43.884;20.340;2023-03-11T03:37:33;4.93;;;2.03;;
54795;SDS011;40693;43.884;20.340;2023-03-11T03:40:00;5.30;;;3.15;;
54795;SDS011;40693;43.884;20.340;2023-03-11T03:42:27;4.43;;;3.05;;
54795;SDS011;40693;43.884;20.340;2023-03-11T03:44:53;15.77;;;7.45;;
54795;SDS011;40693;43.884;20.340;2023-03-11T03:47:19;10.15;;;5.40;;
54795;SDS011;40693;43.884;20.340;2023-03-11T03:49:44;8.88;;;4.68;;
54795;SDS011;40693;43.884;20.340;2023-03-11T03:52:10;8.82;;;4.95;;
54795;SDS011;40693;43.884;20.340;2023-03-11T03:54:36;12.18;;;6.65;;
54795;SDS011;40693;43.884;20.340;2023-03-11T03:57:02;13.10;;;6.78;;
54795;SDS011;40693;43.884;20.340;2023-03-11T03:59:28;11.15;;;5.88;;
54795;SDS011;40693;43.884;20.340;2023-03-11T04:01:54;11.00;;;6.10;;
54795;SDS011;40693;43.884;20.340;2023-03-11T04:04:20;12.38;;;7.15;;
54795;SDS011;40693;43.884;20.340;2023-03-11T04:06:46;10.50;;;4.35;;
54795;SDS011;40693;43.884;20.340;2023-03-11T04:09:12;15.60;;;9.48;;
54795;SDS011;40693;43.884;20.340;2023-03-11T04:11:38;11.05;;;6.85;;
54795;SDS011;40693;43.884;20.340;2023-03-11T04:14:04;15.75;;;9.55;;
54795;SDS011;40693;43.884;20.340;2023-03-11T04:16:30;15.43;;;10.07;;
54795;SDS011;40693;43.884;20.340;2023-03-11T04:18:56;18.92;;;11.40;;
54795;SDS011;40693;43.884;20.340;2023-03-11T04:21:22;19.08;;;10.73;;
54795;SDS011;40693;43.884;20.340;2023-03-11T04:23:48;20.15;;;11.43;;
54795;SDS011;40693;43.884;20.340;2023-03-11T04:26:15;18.45;;;9.02;;
54795;SDS011;40693;43.884;20.340;2023-03-11T04:28:40;14.68;;;7.88;;
54795;SDS011;40693;43.884;20.340;2023-03-11T04:31:06;9.82;;;5.90;;
54795;SDS011;40693;43.884;20.340;2023-03-11T04:33:32;13.30;;;7.18;;
54795;SDS011;40693;43.884;20.340;2023-03-11T04:35:58;11.13;;;5.65;;
54795;SDS011;40693;43.884;20.340;2023-03-11T04:38:24;8.18;;;6.05;;
54795;SDS011;40693;43.884;20.340;2023-03-11T04:40:49;9.60;;;6.97;;
54795;SDS011;40693;43.884;20.340;2023-03-11T04:43:15;9.30;;;4.93;;
54795;SDS011;40693;43.884;20.340;2023-03-11T04:45:41;33.67;;;20.95;;
54795;SDS011;40693;43.884;20.340;2023-03-11T04:48:07;22.70;;;13.25;;
54795;SDS011;40693;43.884;20.340;2023-03-11T04:50:33;24.10;;;14.88;;
54795;SDS011;40693;43.884;20.340;2023-03-11T04:52:59;21.48;;;13.40;;
54795;SDS011;40693;43.884;20.340;2023-03-11T04:55:24;18.52;;;12.43;;
54795;SDS011;40693;43.884;20.340;2023-03-11T04:57:50;29.52;;;12.50;;
54795;SDS011;40693;43.884;20.340;2023-03-11T05:00:16;20.58;;;12.48;;
54795;SDS011;40693;43.884;20.340;2023-03-11T05:02:46;18.73;;;10.95;;
54795;SDS011;40693;43.884;20.340;2023-03-11T05:05:12;18.88;;;11.35;;
54795;SDS011;40693;43.884;20.340;2023-03-11T05:07:38;16.55;;;6.80;;
54795;SDS011;40693;43.884;20.340;2023-03-11T05:10:04;7.47;;;3.85;;
54795;SDS011;40693;43.884;20.340;2023-03-11T05:12:30;6.75;;;4.13;;
54795;SDS011;40693;43.884;20.340;2023-03-11T05:14:56;7.00;;;3.95;;
54795;SDS011;40693;43.884;20.340;2023-03-11T05:17:22;5.70;;;3.45;;
54795;SDS011;40693;43.884;20.340;2023-03-11T05:19:49;3.58;;;2.55;;
54795;SDS011;40693;43.884;20.340;2023-03-11T05:22:15;5.97;;;2.75;;
54795;SDS011;40693;43.884;20.340;2023-03-11T05:24:41;5.70;;;2.95;;
54795;SDS011;40693;43.884;20.340;2023-03-11T05:27:06;5.65;;;2.83;;
54795;SDS011;40693;43.884;20.340;2023-03-11T05:29:32;4.47;;;3.15;;
54795;SDS011;40693;43.884;20.340;2023-03-11T05:31:58;6.10;;;3.20;;
54795;SDS011;40693;43.884;20.340;2023-03-11T05:34:23;6.85;;;3.33;;
54795;SDS011;40693;43.884;20.340;2023-03-11T05:36:49;5.78;;;3.50;;
54795;SDS011;40693;43.884;20.340;2023-03-11T05:39:15;6.35;;;3.25;;
54795;SDS011;40693;43.884;20.340;2023-03-11T05:41:41;10.52;;;5.20;;
54795;SDS011;40693;43.884;20.340;2023-03-11T05:44:07;14.95;;;7.78;;
54795;SDS011;40693;43.884;20.340;2023-03-11T05:46:32;12.23;;;5.88;;
54795;SDS011;40693;43.884;20.340;2023-03-11T05:48:58;22.05;;;13.88;;
54795;SDS011;40693;43.884;20.340;2023-03-11T05:51:27;37.60;;;24.60;;
54795;SDS011;40693;43.884;20.340;2023-03-11T05:53:55;133.35;;;83.85;;
54795;SDS011;40693;43.884;20.340;2023-03-11T05:56:21;122.18;;;73.35;;
54795;SDS011;40693;43.884;20.340;2023-03-11T05:58:47;61.97;;;41.78;;
54795;SDS011;40693;43.884;20.340;2023-03-11T06:01:14;52.60;;;32.90;;
54795;SDS011;40693;43.884;20.340;2023-03-11T06:03:42;37.38;;;25.33;;
54795;SDS011;40693;43.884;20.340;2023-03-11T06:06:09;35.63;;;23.27;;
54795;SDS011;40693;43.884;20.340;2023-03-11T06:08:36;20.95;;;13.43;;
54795;SDS011;40693;43.884;20.340;2023-03-11T06:13:27;25.88;;;16.65;;
54795;SDS011;40693;43.884;20.340;2023-03-11T06:15:54;20.38;;;12.63;;
54795;SDS011;40693;43.884;20.340;2023-03-11T06:18:20;17.40;;;12.60;;
54795;SDS011;40693;43.884;20.340;2023-03-11T06:20:46;25.60;;;13.90;;
54795;SDS011;40693;43.884;20.340;2023-03-11T06:23:11;27.58;;;15.68;;
54795;SDS011;40693;43.884;20.340;2023-03-11T06:25:37;28.98;;;16.30;;
54795;SDS011;40693;43.884;20.340;2023-03-11T06:28:03;35.15;;;21.85;;
54795;SDS011;40693;43.884;20.340;2023-03-11T06:30:28;33.65;;;21.65;;
54795;SDS011;40693;43.884;20.340;2023-03-11T06:32:54;35.95;;;22.77;;
54795;SDS011;40693;43.884;20.340;2023-03-11T06:35:20;33.30;;;22.77;;
54795;SDS011;40693;43.884;20.340;2023-03-11T06:37:46;30.52;;;19.30;;
54795;SDS011;40693;43.884;20.340;2023-03-11T06:40:11;23.98;;;13.35;;
54795;SDS011;40693;43.884;20.340;2023-03-11T06:42:38;24.85;;;13.85;;
54795;SDS011;40693;43.884;20.340;2023-03-11T06:45:03;22.15;;;14.13;;
54795;SDS011;40693;43.884;20.340;2023-03-11T06:47:30;15.18;;;10.55;;
54795;SDS011;40693;43.884;20.340;2023-03-11T06:49:56;15.15;;;9.73;;
54795;SDS011;40693;43.884;20.340;2023-03-11T06:52:21;11.77;;;7.43;;
54795;SDS011;40693;43.884;20.340;2023-03-11T06:54:47;9.50;;;7.43;;
54795;SDS011;40693;43.884;20.340;2023-03-11T06:57:13;10.13;;;6.90;;
54795;SDS011;40693;43.884;20.340;2023-03-11T06:59:39;11.52;;;7.25;;
54795;SDS011;40693;43.884;20.340;2023-03-11T07:02:05;10.52;;;7.38;;
54795;SDS011;40693;43.884;20.340;2023-03-11T07:04:32;11.63;;;7.43;;
54795;SDS011;40693;43.884;20.340;2023-03-11T07:06:57;19.27;;;11.25;;
54795;SDS011;40693;43.884;20.340;2023-03-11T07:09:23;22.98;;;13.10;;
54795;SDS011;40693;43.884;20.340;2023-03-11T07:11:52;21.00;;;14.68;;
54795;SDS011;40693;43.884;20.340;2023-03-11T07:14:18;20.75;;;12.20;;
54795;SDS011;40693;43.884;20.340;2023-03-11T07:16:44;16.45;;;12.73;;
54795;SDS011;40693;43.884;20.340;2023-03-11T07:19:10;19.15;;;13.18;;
54795;SDS011;40693;43.884;20.340;2023-03-11T07:21:36;18.27;;;12.13;;
54795;SDS011;40693;43.884;20.340;2023-03-11T07:24:03;18.67;;;12.60;;
54795;SDS011;40693;43.884;20.340;2023-03-11T07:26:30;23.42;;;14.63;;
54795;SDS011;40693;43.884;20.340;2023-03-11T07:28:57;27.45;;;17.42;;
54795;SDS011;40693;43.884;20.340;2023-03-11T07:31:25;40.42;;;23.35;;
54795;SDS011;40693;43.884;20.340;2023-03-11T07:33:56;36.67;;;24.27;;
54795;SDS011;40693;43.884;20.340;2023-03-11T07:36:23;55.70;;;28.23;;
54795;SDS011;40693;43.884;20.340;2023-03-11T07:38:56;68.32;;;34.30;;
54795;SDS011;40693;43.884;20.340;2023-03-11T07:41:29;54.42;;;31.85;;
54795;SDS011;40693;43.884;20.340;2023-03-11T07:43:57;59.65;;;32.90;;
54795;SDS011;40693;43.884;20.340;2023-03-11T07:46:24;59.97;;;34.50;;
54795;SDS011;40693;43.884;20.340;2023-03-11T07:48:51;115.22;;;73.25;;
54795;SDS011;40693;43.884;20.340;2023-03-11T07:51:27;82.22;;;57.15;;
54795;SDS011;40693;43.884;20.340;2023-03-11T07:53:54;80.50;;;50.42;;
54795;SDS011;40693;43.884;20.340;2023-03-11T07:56:22;53.95;;;32.75;;
54795;SDS011;40693;43.884;20.340;2023-03-11T07:58:49;48.78;;;27.80;;
54795;SDS011;40693;43.884;20.340;2023-03-11T08:01:17;40.97;;;22.58;;
54795;SDS011;40693;43.884;20.340;2023-03-11T08:03:46;61.60;;;46.17;;
54795;SDS011;40693;43.884;20.340;2023-03-11T08:06:18;65.90;;;44.42;;
54795;SDS011;40693;43.884;20.340;2023-03-11T08:08:48;46.38;;;33.22;;
54795;SDS011;40693;43.884;20.340;2023-03-11T08:11:18;58.88;;;37.67;;
54795;SDS011;40693;43.884;20.340;2023-03-11T08:13:50;70.65;;;42.45;;
54795;SDS011;40693;43.884;20.340;2023-03-11T08:16:18;61.08;;;40.55;;
54795;SDS011;40693;43.884;20.340;2023-03-11T08:18:45;95.63;;;60.40;;
54795;SDS011;40693;43.884;20.340;2023-03-11T08:21:12;91.72;;;51.70;;
54795;SDS011;40693;43.884;20.340;2023-03-11T08:23:46;47.80;;;29.23;;
54795;SDS011;40693;43.884;20.340;2023-03-11T08:26:20;45.45;;;28.30;;
54795;SDS011;40693;43.884;20.340;2023-03-11T08:28:49;49.95;;;33.88;;
54795;SDS011;40693;43.884;20.340;2023-03-11T08:31:22;39.40;;;25.02;;
54795;SDS011;40693;43.884;20.340;2023-03-11T08:33:50;32.17;;;24.17;;
54795;SDS011;40693;43.884;20.340;2023-03-11T08:36:18;32.88;;;21.15;;
54795;SDS011;40693;43.884;20.340;2023-03-11T08:38:44;16.02;;;10.75;;
54795;SDS011;40693;43.884;20.340;2023-03-11T08:41:10;16.92;;;7.38;;
54795;SDS011;40693;43.884;20.340;2023-03-11T08:43:36;19.98;;;10.65;;
54795;SDS011;40693;43.884;20.340;2023-03-11T08:46:03;18.95;;;11.27;;
54795;SDS011;40693;43.884;20.340;2023-03-11T08:48:32;19.95;;;11.82;;
54795;SDS011;40693;43.884;20.340;2023-03-11T08:51:00;12.85;;;7.20;;
54795;SDS011;40693;43.884;20.340;2023-03-11T08:53:30;7.00;;;4.60;;
54795;SDS011;40693;43.884;20.340;2023-03-11T08:56:42;5.18;;;4.18;;
54795;SDS011;40693;43.884;20.340;2023-03-11T08:59:23;6.03;;;3.47;;
54795;SDS011;40693;43.884;20.340;2023-03-11T09:02:24;9.10;;;5.50;;
54795;SDS011;40693;43.884;20.340;2023-03-11T09:05:05;9.52;;;4.72;;
54795;SDS011;40693;43.884;20.340;2023-03-11T09:07:31;21.05;;;12.07;;
54795;SDS011;40693;43.884;20.340;2023-03-11T09:09:57;19.20;;;17.38;;
54795;SDS011;40693;43.884;20.340;2023-03-11T09:12:40;13.65;;;11.40;;
54795;SDS011;40693;43.884;20.340;2023-03-11T09:15:41;16.75;;;8.85;;
54795;SDS011;40693;43.884;20.340;2023-03-11T09:18:15;18.50;;;10.82;;
54795;SDS011;40693;43.884;20.340;2023-03-11T09:20:42;17.65;;;11.23;;
54795;SDS011;40693;43.884;20.340;2023-03-11T09:23:08;7.75;;;6.72;;
54795;SDS011;40693;43.884;20.340;2023-03-11T09:25:35;10.15;;;6.72;;
54795;SDS011;40693;43.884;20.340;2023-03-11T09:31:34;12.73;;;9.63;;
54795;SDS011;40693;43.884;20.340;2023-03-11T09:36:57;6.68;;;4.38;;
54795;SDS011;40693;43.884;20.340;2023-03-11T09:39:48;16.75;;;9.27;;
54795;SDS011;40693;43.884;20.340;2023-03-11T09:42:28;14.63;;;11.00;;
54795;SDS011;40693;43.884;20.340;2023-03-11T09:45:05;17.00;;;9.75;;
54795;SDS011;40693;43.884;20.340;2023-03-11T09:47:58;20.73;;;13.82;;
54795;SDS011;40693;43.884;20.340;2023-03-11T09:50:58;16.20;;;9.75;;
54795;SDS011;40693;43.884;20.340;2023-03-11T09:56:19;7.97;;;4.78;;
54795;SDS011;40693;43.884;20.340;2023-03-11T09:58:58;8.50;;;6.00;;
54795;SDS011;40693;43.884;20.340;2023-03-11T10:01:35;10.25;;;7.82;;
54795;SDS011;40693;43.884;20.340;2023-03-11T10:04:15;12.43;;;8.35;;
54795;SDS011;40693;43.884;20.340;2023-03-11T10:06:46;13.27;;;8.00;;
54795;SDS011;40693;43.884;20.340;2023-03-11T10:14:51;27.42;;;13.25;;
54795;SDS011;40693;43.884;20.340;2023-03-11T10:26:26;60.75;;;28.70;;
54795;SDS011;40693;43.884;20.340;2023-03-11T10:29:09;89.40;;;46.22;;
54795;SDS011;40693;43.884;20.340;2023-03-11T10:31:50;52.33;;;28.17;;
54795;SDS011;40693;43.884;20.340;2023-03-11T10:37:10;22.00;;;12.77;;
54795;SDS011;40693;43.884;20.340;2023-03-11T10:39:43;32.17;;;11.13;;
54795;SDS011;40693;43.884;20.340;2023-03-11T10:42:16;23.63;;;12.25;;
54795;SDS011;40693;43.884;20.340;2023-03-11T10:44:46;22.50;;;13.55;;
54795;SDS011;40693;43.884;20.340;2023-03-11T10:47:14;10.65;;;5.00;;
54795;SDS011;40693;43.884;20.340;2023-03-11T10:49:50;20.35;;;9.63;;
54795;SDS011;40693;43.884;20.340;2023-03-11T10:52:21;20.38;;;10.30;;
54795;SDS011;40693;43.884;20.340;2023-03-11T10:54:59;21.40;;;13.93;;
54795;SDS011;40693;43.884;20.340;2023-03-11T10:57:59;10.05;;;7.07;;
54795;SDS011;40693;43.884;20.340;2023-03-11T11:00:43;32.92;;;19.00;;
54795;SDS011;40693;43.884;20.340;2023-03-11T11:03:17;56.15;;;33.00;;
54795;SDS011;40693;43.884;20.340;2023-03-11T11:05:55;28.00;;;18.77;;
54795;SDS011;40693;43.884;20.340;2023-03-11T11:08:26;10.10;;;5.93;;
54795;SDS011;40693;43.884;20.340;2023-03-11T11:10:59;9.55;;;5.63;;
54795;SDS011;40693;43.884;20.340;2023-03-11T11:13:27;4.70;;;3.75;;
54795;SDS011;40693;43.884;20.340;2023-03-11T11:15:59;8.80;;;5.15;;
54795;SDS011;40693;43.884;20.340;2023-03-11T11:18:27;6.10;;;3.95;;
54795;SDS011;40693;43.884;20.340;2023-03-11T11:21:07;7.43;;;5.63;;
54795;SDS011;40693;43.884;20.340;2023-03-11T11:23:47;6.70;;;4.75;;
54795;SDS011;40693;43.884;20.340;2023-03-11T11:28:45;14.43;;;5.47;;
54795;SDS011;40693;43.884;20.340;2023-03-11T11:31:24;7.80;;;4.90;;
54795;SDS011;40693;43.884;20.340;2023-03-11T11:33:54;8.40;;;6.32;;
54795;SDS011;40693;43.884;20.340;2023-03-11T11:36:21;9.70;;;7.85;;
54795;SDS011;40693;43.884;20.340;2023-03-11T11:38:55;19.88;;;11.63;;
54795;SDS011;40693;43.884;20.340;2023-03-11T11:41:23;12.45;;;6.93;;
54795;SDS011;40693;43.884;20.340;2023-03-11T11:46:20;7.75;;;4.80;;
54795;SDS011;40693;43.884;20.340;2023-03-11T11:49:04;10.18;;;6.93;;
54795;SDS011;40693;43.884;20.340;2023-03-11T11:51:51;10.07;;;7.07;;
54795;SDS011;40693;43.884;20.340;2023-03-11T11:57:11;6.55;;;4.15;;
54795;SDS011;40693;43.884;20.340;2023-03-11T11:59:39;6.15;;;4.40;;
54795;SDS011;40693;43.884;20.340;2023-03-11T12:04:55;5.43;;;3.17;;
54795;SDS011;40693;43.884;20.340;2023-03-11T12:10:17;8.15;;;4.90;;
54795;SDS011;40693;43.884;20.340;2023-03-11T12:16:30;7.38;;;4.00;;
54795;SDS011;40693;43.884;20.340;2023-03-11T12:24:27;21.50;;;12.05;;
54795;SDS011;40693;43.884;20.340;2023-03-11T12:27:21;21.10;;;12.63;;
54795;SDS011;40693;43.884;20.340;2023-03-11T12:29:51;11.70;;;6.68;;
54795;SDS011;40693;43.884;20.340;2023-03-11T12:35:02;18.00;;;11.23;;
54795;SDS011;40693;43.884;20.340;2023-03-11T12:37:40;13.70;;;9.20;;
54795;SDS011;40693;43.884;20.340;2023-03-11T12:43:23;24.70;;;14.10;;
54795;SDS011;40693;43.884;20.340;2023-03-11T12:46:00;28.85;;;18.25;;
54795;SDS011;40693;43.884;20.340;2023-03-11T12:50:56;32.05;;;18.83;;
54795;SDS011;40693;43.884;20.340;2023-03-11T12:59:03;11.07;;;8.30;;
54795;SDS011;40693;43.884;20.340;2023-03-11T13:01:56;18.00;;;11.38;;
54795;SDS011;40693;43.884;20.340;2023-03-11T13:04:53;20.33;;;14.07;;
54795;SDS011;40693;43.884;20.340;2023-03-11T13:10:44;9.52;;;6.80;;
54795;SDS011;40693;43.884;20.340;2023-03-11T13:13:31;13.82;;;10.00;;
54795;SDS011;40693;43.884;20.340;2023-03-11T13:18:40;11.80;;;8.32;;
54795;SDS011;40693;43.884;20.340;2023-03-11T13:23:51;19.50;;;15.25;;
54795;SDS011;40693;43.884;20.340;2023-03-11T13:26:39;17.20;;;12.98;;
54795;SDS011;40693;43.884;20.340;2023-03-11T13:32:16;19.02;;;10.30;;
54795;SDS011;40693;43.884;20.340;2023-03-11T13:40:55;12.20;;;6.50;;
54795;SDS011;40693;43.884;20.340;2023-03-11T13:43:21;11.95;;;5.35;;
54795;SDS011;40693;43.884;20.340;2023-03-11T13:46:10;10.75;;;5.40;;
54795;SDS011;40693;43.884;20.340;2023-03-11T13:48:44;12.77;;;7.47;;
54795;SDS011;40693;43.884;20.340;2023-03-11T13:51:26;11.38;;;7.20;;
54795;SDS011;40693;43.884;20.340;2023-03-11T13:56:47;23.33;;;16.67;;
54795;SDS011;40693;43.884;20.340;2023-03-11T13:59:23;16.90;;;11.50;;
54795;SDS011;40693;43.884;20.340;2023-03-11T14:01:52;27.92;;;18.17;;
54795;SDS011;40693;43.884;20.340;2023-03-11T14:04:19;25.73;;;15.43;;
54795;SDS011;40693;43.884;20.340;2023-03-11T14:06:50;47.13;;;27.50;;
54795;SDS011;40693;43.884;20.340;2023-03-11T14:09:20;23.40;;;13.75;;
54795;SDS011;40693;43.884;20.340;2023-03-11T14:11:46;19.17;;;12.63;;
54795;SDS011;40693;43.884;20.340;2023-03-11T14:17:01;28.23;;;16.52;;
54795;SDS011;40693;43.884;20.340;2023-03-11T14:19:29;20.70;;;10.90;;
54795;SDS011;40693;43.884;20.340;2023-03-11T14:21:54;18.90;;;10.60;;
54795;SDS011;40693;43.884;20.340;2023-03-11T14:24:31;30.48;;;18.33;;
54795;SDS011;40693;43.884;20.340;2023-03-11T14:26:58;33.58;;;21.27;;
54795;SDS011;40693;43.884;20.340;2023-03-11T14:29:30;24.83;;;15.15;;
54795;SDS011;40693;43.884;20.340;2023-03-11T14:31:58;17.05;;;10.55;;
54795;SDS011;40693;43.884;20.340;2023-03-11T14:34:26;18.88;;;12.57;;
54795;SDS011;40693;43.884;20.340;2023-03-11T14:36:59;33.13;;;18.15;;
54795;SDS011;40693;43.884;20.340;2023-03-11T14:44:33;19.40;;;11.38;;
54795;SDS011;40693;43.884;20.340;2023-03-11T14:49:49;28.95;;;16.95;;
54795;SDS011;40693;43.884;20.340;2023-03-11T14:52:20;34.85;;;19.77;;
54795;SDS011;40693;43.884;20.340;2023-03-11T14:54:54;39.05;;;24.35;;
54795;SDS011;40693;43.884;20.340;2023-03-11T14:57:23;55.70;;;34.20;;
54795;SDS011;40693;43.884;20.340;2023-03-11T14:59:56;55.92;;;33.85;;
54795;SDS011;40693;43.884;20.340;2023-03-11T15:05:07;39.25;;;25.85;;
54795;SDS011;40693;43.884;20.340;2023-03-11T15:07:50;83.57;;;48.03;;
54795;SDS011;40693;43.884;20.340;2023-03-11T15:10:38;92.67;;;53.30;;
54795;SDS011;40693;43.884;20.340;2023-03-11T15:13:12;56.88;;;36.70;;
54795;SDS011;40693;43.884;20.340;2023-03-11T15:15:40;64.40;;;38.22;;
54795;SDS011;40693;43.884;20.340;2023-03-11T15:18:25;42.15;;;28.83;;
54795;SDS011;40693;43.884;20.340;2023-03-11T15:21:03;20.63;;;14.55;;
54795;SDS011;40693;43.884;20.340;2023-03-11T15:23:35;30.23;;;17.05;;
54795;SDS011;40693;43.884;20.340;2023-03-11T15:26:01;23.52;;;15.07;;
54795;SDS011;40693;43.884;20.340;2023-03-11T15:28:31;28.63;;;13.35;;
54795;SDS011;40693;43.884;20.340;2023-03-11T15:31:16;35.20;;;19.10;;
54795;SDS011;40693;43.884;20.340;2023-03-11T15:33:55;20.95;;;15.70;;
54795;SDS011;40693;43.884;20.340;2023-03-11T15:37:03;24.65;;;14.70;;
54795;SDS011;40693;43.884;20.340;2023-03-11T15:39:41;31.48;;;18.25;;
54795;SDS011;40693;43.884;20.340;2023-03-11T15:42:12;33.67;;;21.02;;
54795;SDS011;40693;43.884;20.340;2023-03-11T15:47:20;34.17;;;21.98;;
54795;SDS011;40693;43.884;20.340;2023-03-11T15:49:49;44.30;;;24.83;;
54795;SDS011;40693;43.884;20.340;2023-03-11T15:52:15;38.42;;;22.48;;
54795;SDS011;40693;43.884;20.340;2023-03-11T15:54:43;33.92;;;17.50;;
54795;SDS011;40693;43.884;20.340;2023-03-11T15:57:12;28.15;;;15.30;;
54795;SDS011;40693;43.884;20.340;2023-03-11T15:59:46;25.83;;;13.93;;
54795;SDS011;40693;43.884;20.340;2023-03-11T16:02:22;32.10;;;19.10;;
54795;SDS011;40693;43.884;20.340;2023-03-11T16:04:50;20.23;;;12.95;;
54795;SDS011;40693;43.884;20.340;2023-03-11T16:07:36;27.45;;;16.08;;
54795;SDS011;40693;43.884;20.340;2023-03-11T16:10:16;26.20;;;14.32;;
54795;SDS011;40693;43.884;20.340;2023-03-11T16:12:49;25.33;;;15.77;;
54795;SDS011;40693;43.884;20.340;2023-03-11T16:15:23;26.67;;;17.90;;
54795;SDS011;40693;43.884;20.340;2023-03-11T16:17:52;20.38;;;13.63;;
54795;SDS011;40693;43.884;20.340;2023-03-11T16:20:20;19.30;;;11.93;;
54795;SDS011;40693;43.884;20.340;2023-03-11T16:22:48;22.42;;;14.55;;